createdAt,value
2018-03-28T00:00:44.604Z,937.08
2018-03-28T00:01:44.593Z,937.11
2018-03-28T00:02:44.579Z,937.14
2018-03-28T00:03:44.571Z,937.19
2018-03-28T00:04:44.584Z,937.17
2018-03-28T00:05:44.568Z,937.21
2018-03-28T00:06:44.553Z,937.25
2018-03-28T00:07:44.542Z,937.26
2018-03-28T00:08:44.538Z,937.24
2018-03-28T00:09:44.550Z,937.24
2018-03-28T00:10:44.520Z,937.23
2018-03-28T00:11:44.520Z,937.22
2018-03-28T00:12:44.528Z,937.21
2018-03-28T00:13:44.506Z,937.14
2018-03-28T00:14:44.511Z,937.17
2018-03-28T00:15:44.500Z,937.14
2018-03-28T00:16:44.497Z,937.13
2018-03-28T00:17:44.479Z,937.11
2018-03-28T00:18:44.463Z,937.16
2018-03-28T00:19:44.478Z,937.10
2018-03-28T00:20:44.466Z,937.10
2018-03-28T00:21:44.474Z,937.03
2018-03-28T00:22:44.444Z,936.98
2018-03-28T00:23:44.455Z,936.99
2018-03-28T00:24:44.445Z,936.92
2018-03-28T00:25:44.439Z,936.94
2018-03-28T00:26:44.426Z,936.96
2018-03-28T00:27:44.423Z,936.94
2018-03-28T00:28:44.421Z,936.91
2018-03-28T00:29:44.414Z,936.88
2018-03-28T00:30:44.407Z,936.84
2018-03-28T00:31:44.373Z,936.82
2018-03-28T00:32:44.393Z,936.81
2018-03-28T00:33:44.380Z,936.78
2018-03-28T00:34:44.363Z,936.80
2018-03-28T00:35:44.360Z,936.77
2018-03-28T00:36:44.349Z,936.71
2018-03-28T00:37:44.347Z,936.65
2018-03-28T00:38:44.335Z,936.62
2018-03-28T00:39:44.327Z,936.56
2018-03-28T00:40:44.331Z,936.61
2018-03-28T00:41:44.312Z,936.58
2018-03-28T00:42:44.306Z,936.62
2018-03-28T00:43:44.298Z,936.67
2018-03-28T00:44:44.349Z,936.63
2018-03-28T00:45:44.281Z,936.69
2018-03-28T00:46:44.284Z,936.72
2018-03-28T00:47:44.276Z,936.78
2018-03-28T00:48:44.263Z,936.84
2018-03-28T00:49:44.257Z,936.86
2018-03-28T00:50:44.265Z,936.88
2018-03-28T00:51:44.242Z,936.94
2018-03-28T00:52:44.252Z,936.95
2018-03-28T00:53:44.219Z,936.96
2018-03-28T00:54:44.239Z,936.96
2018-03-28T00:55:44.212Z,936.96
2018-03-28T00:56:44.205Z,936.93
2018-03-28T00:57:44.203Z,936.91
2018-03-28T00:58:44.186Z,936.89
2018-03-28T00:59:44.203Z,936.84
2018-03-28T01:00:44.193Z,936.84
2018-03-28T01:01:44.175Z,936.89
2018-03-28T01:02:44.184Z,936.84
2018-03-28T01:03:44.157Z,936.85
2018-03-28T01:04:44.144Z,936.86
2018-03-28T01:05:44.163Z,936.87
2018-03-28T01:06:44.152Z,936.89
2018-03-28T01:07:44.145Z,936.88
2018-03-28T01:08:44.126Z,936.89
2018-03-28T01:09:44.131Z,936.89
2018-03-28T01:10:44.104Z,936.88
2018-03-28T01:11:44.124Z,936.88
2018-03-28T01:12:44.116Z,936.87
2018-03-28T01:13:44.109Z,936.85
2018-03-28T01:14:44.093Z,936.85
2018-03-28T01:15:44.079Z,936.89
2018-03-28T01:16:44.069Z,936.88
2018-03-28T01:17:44.083Z,936.89
2018-03-28T01:18:44.061Z,936.89
2018-03-28T01:19:44.060Z,936.91
2018-03-28T01:20:44.044Z,936.91
2018-03-28T01:21:44.047Z,936.92
2018-03-28T01:22:44.046Z,936.94
2018-03-28T01:23:44.039Z,936.94
2018-03-28T01:24:44.013Z,936.94
2018-03-28T01:25:44.022Z,936.92
2018-03-28T01:26:44.014Z,936.93
2018-03-28T01:27:44.007Z,936.92
2018-03-28T01:28:44.005Z,936.95
2018-03-28T01:29:43.989Z,936.95
2018-03-28T01:30:43.997Z,936.96
2018-03-28T01:31:43.974Z,936.98
2018-03-28T01:32:43.979Z,936.97
2018-03-28T01:33:43.976Z,936.96
2018-03-28T01:34:43.960Z,936.98
2018-03-28T01:35:43.959Z,936.98
2018-03-28T01:36:43.937Z,936.94
2018-03-28T01:37:43.949Z,936.95
2018-03-28T01:38:43.944Z,936.94
2018-03-28T01:39:43.927Z,936.96
2018-03-28T01:40:43.926Z,936.97
2018-03-28T01:41:43.923Z,937.00
2018-03-28T01:42:43.908Z,937.01
2018-03-28T01:43:43.910Z,937.06
2018-03-28T01:44:43.883Z,937.04
2018-03-28T01:45:43.899Z,937.05
2018-03-28T01:46:43.866Z,937.04
2018-03-28T01:47:43.884Z,937.05
2018-03-28T01:48:43.857Z,937.00
2018-03-28T01:49:43.855Z,936.97
2018-03-28T01:50:43.845Z,936.95
2018-03-28T01:51:43.831Z,936.92
2018-03-28T01:52:43.850Z,936.88
2018-03-28T01:53:43.845Z,936.90
2018-03-28T01:54:43.819Z,936.90
2018-03-28T01:55:43.806Z,936.92
2018-03-28T01:56:43.824Z,936.94
2018-03-28T01:57:43.802Z,936.91
2018-03-28T01:58:43.792Z,936.92
2018-03-28T01:59:43.785Z,936.93
2018-03-28T02:00:43.785Z,936.96
2018-03-28T02:01:43.775Z,936.92
2018-03-28T02:02:43.785Z,936.91
2018-03-28T02:03:43.763Z,936.91
2018-03-28T02:04:43.752Z,936.90
2018-03-28T02:05:43.750Z,936.88
2018-03-28T02:06:43.744Z,936.90
2018-03-28T02:07:43.732Z,936.88
2018-03-28T02:08:43.745Z,936.87
2018-03-28T02:09:43.740Z,936.86
2018-03-28T02:10:43.712Z,936.85
2018-03-28T02:11:43.710Z,936.78
2018-03-28T02:12:43.701Z,936.77
2018-03-28T02:13:43.702Z,936.76
2018-03-28T02:14:43.685Z,936.70
2018-03-28T02:15:43.678Z,936.71
2018-03-28T02:16:43.681Z,936.71
2018-03-28T02:17:43.684Z,936.70
2018-03-28T02:18:43.662Z,936.69
2018-03-28T02:19:43.644Z,936.72
2018-03-28T02:20:43.649Z,936.71
2018-03-28T02:21:43.641Z,936.67
2018-03-28T02:22:43.635Z,936.64
2018-03-28T02:23:43.627Z,936.58
2018-03-28T02:24:43.611Z,936.60
2018-03-28T02:25:43.604Z,936.59
2018-03-28T02:26:43.607Z,936.60
2018-03-28T02:27:43.592Z,936.57
2018-03-28T02:28:43.591Z,936.54
2018-03-28T02:29:43.592Z,936.50
2018-03-28T02:30:43.577Z,936.50
2018-03-28T02:31:43.589Z,936.51
2018-03-28T02:32:43.557Z,936.50
2018-03-28T02:33:43.579Z,936.53
2018-03-28T02:34:43.563Z,936.55
2018-03-28T02:35:43.543Z,936.56
2018-03-28T02:36:43.530Z,936.54
2018-03-28T02:37:43.549Z,936.56
2018-03-28T02:38:43.523Z,936.57
2018-03-28T02:39:43.530Z,936.54
2018-03-28T02:40:43.509Z,936.58
2018-03-28T02:41:43.508Z,936.58
2018-03-28T02:42:43.500Z,936.51
2018-03-28T02:43:43.492Z,936.50
2018-03-28T02:44:43.483Z,936.56
2018-03-28T02:45:43.476Z,936.54
2018-03-28T02:46:43.463Z,936.55
2018-03-28T02:47:43.462Z,936.57
2018-03-28T02:48:43.456Z,936.57
2018-03-28T02:49:43.452Z,936.54
2018-03-28T02:50:43.436Z,936.52
2018-03-28T02:51:43.437Z,936.48
2018-03-28T02:52:43.428Z,936.47
2018-03-28T02:53:43.427Z,936.50
2018-03-28T02:54:43.419Z,936.45
2018-03-28T02:55:43.408Z,936.43
2018-03-28T02:56:43.407Z,936.40
2018-03-28T02:57:43.400Z,936.45
2018-03-28T02:58:43.389Z,936.45
2018-03-28T02:59:43.386Z,936.44
2018-03-28T03:00:43.379Z,936.44
2018-03-28T03:01:43.368Z,936.51
2018-03-28T03:02:43.361Z,936.56
2018-03-28T03:03:43.357Z,936.55
2018-03-28T03:04:43.347Z,936.59
2018-03-28T03:05:43.334Z,936.62
2018-03-28T03:06:43.334Z,936.61
2018-03-28T03:07:43.322Z,936.60
2018-03-28T03:08:43.325Z,936.62
2018-03-28T03:09:43.318Z,936.61
2018-03-28T03:10:43.310Z,936.60
2018-03-28T03:11:43.299Z,936.61
2018-03-28T03:12:43.296Z,936.61
2018-03-28T03:13:43.318Z,936.62
2018-03-28T03:14:43.297Z,936.59
2018-03-28T03:15:43.265Z,936.60
2018-03-28T03:16:43.265Z,936.60
2018-03-28T03:17:43.253Z,936.61
2018-03-28T03:18:43.256Z,936.61
2018-03-28T03:19:43.250Z,936.56
2018-03-28T03:20:43.255Z,936.56
2018-03-28T03:21:43.248Z,936.57
2018-03-28T03:22:43.246Z,936.54
2018-03-28T03:23:43.229Z,936.55
2018-03-28T03:24:43.210Z,936.50
2018-03-28T03:25:43.208Z,936.48
2018-03-28T03:26:43.199Z,936.46
2018-03-28T03:27:43.191Z,936.48
2018-03-28T03:28:43.185Z,936.47
2018-03-28T03:29:43.171Z,936.42
2018-03-28T03:30:43.174Z,936.43
2018-03-28T03:31:43.179Z,936.37
2018-03-28T03:32:43.172Z,936.41
2018-03-28T03:33:43.166Z,936.34
2018-03-28T03:34:43.153Z,936.31
2018-03-28T03:35:43.133Z,936.27
2018-03-28T03:36:43.139Z,936.25
2018-03-28T03:37:43.125Z,936.26
2018-03-28T03:38:43.131Z,936.30
2018-03-28T03:39:43.134Z,936.28
2018-03-28T03:40:43.104Z,936.28
2018-03-28T03:41:43.097Z,936.31
2018-03-28T03:42:43.105Z,936.29
2018-03-28T03:43:43.078Z,936.29
2018-03-28T03:44:43.093Z,936.26
2018-03-28T03:45:43.088Z,936.26
2018-03-28T03:46:43.058Z,936.26
2018-03-28T03:47:43.052Z,936.25
2018-03-28T03:48:43.041Z,936.26
2018-03-28T03:49:43.037Z,936.22
2018-03-28T03:50:43.030Z,936.20
2018-03-28T03:51:43.038Z,936.18
2018-03-28T03:52:43.016Z,936.15
2018-03-28T03:53:43.029Z,936.15
2018-03-28T03:54:43.003Z,936.14
2018-03-28T03:55:42.988Z,936.15
2018-03-28T03:56:43.004Z,936.13
2018-03-28T03:57:43.090Z,936.11
2018-03-28T03:58:43.001Z,936.08
2018-03-28T03:59:42.986Z,936.06
2018-03-28T04:00:42.965Z,936.06
2018-03-28T04:01:42.957Z,936.04
2018-03-28T04:02:42.963Z,936.04
2018-03-28T04:03:42.955Z,936.04
2018-03-28T04:04:42.933Z,936.00
2018-03-28T04:05:42.920Z,936.02
2018-03-28T04:06:42.924Z,935.97
2018-03-28T04:07:42.932Z,935.98
2018-03-28T04:08:42.906Z,935.95
2018-03-28T04:09:42.918Z,935.95
2018-03-28T04:10:42.893Z,935.94
2018-03-28T04:11:42.888Z,935.91
2018-03-28T04:12:42.872Z,935.91
2018-03-28T04:13:42.891Z,935.89
2018-03-28T04:14:42.866Z,935.90
2018-03-28T04:15:42.859Z,935.87
2018-03-28T04:16:42.870Z,935.84
2018-03-28T04:17:42.844Z,935.87
2018-03-28T04:18:42.832Z,935.89
2018-03-28T04:19:42.830Z,935.89
2018-03-28T04:20:42.818Z,935.88
2018-03-28T04:21:42.817Z,935.86
2018-03-28T04:22:42.804Z,935.85
2018-03-28T04:23:42.807Z,935.81
2018-03-28T04:24:42.801Z,935.80
2018-03-28T04:25:42.794Z,935.80
2018-03-28T04:26:42.793Z,935.77
2018-03-28T04:27:42.775Z,935.75
2018-03-28T04:28:42.769Z,935.76
2018-03-28T04:29:42.772Z,935.70
2018-03-28T04:30:42.760Z,935.77
2018-03-28T04:31:42.768Z,935.76
2018-03-28T04:32:42.745Z,935.75
2018-03-28T04:33:42.739Z,935.74
2018-03-28T04:34:42.732Z,935.73
2018-03-28T04:35:42.724Z,935.72
2018-03-28T04:36:42.735Z,935.68
2018-03-28T04:37:42.708Z,935.71
2018-03-28T04:38:42.703Z,935.64
2018-03-28T04:39:42.697Z,935.67
2018-03-28T04:40:42.692Z,935.65
2018-03-28T04:41:42.697Z,935.65
2018-03-28T04:42:42.669Z,935.66
2018-03-28T04:43:42.662Z,935.70
2018-03-28T04:44:42.665Z,935.72
2018-03-28T04:45:42.657Z,935.68
2018-03-28T04:46:42.652Z,935.69
2018-03-28T04:47:42.641Z,935.72
2018-03-28T04:48:42.637Z,935.73
2018-03-28T04:49:42.643Z,935.64
2018-03-28T04:50:42.621Z,935.64
2018-03-28T04:51:42.607Z,935.59
2018-03-28T04:52:42.626Z,935.56
2018-03-28T04:53:42.612Z,935.57
2018-03-28T04:54:42.598Z,935.57
2018-03-28T04:55:42.582Z,935.60
2018-03-28T04:56:42.575Z,935.55
2018-03-28T04:57:42.686Z,935.53
2018-03-28T04:58:42.569Z,935.49
2018-03-28T04:59:42.554Z,935.51
2018-03-28T05:00:42.555Z,935.53
2018-03-28T05:01:42.546Z,935.52
2018-03-28T05:02:42.538Z,935.53
2018-03-28T05:03:42.527Z,935.51
2018-03-28T05:04:42.525Z,935.49
2018-03-28T05:05:42.515Z,935.49
2018-03-28T05:06:42.505Z,935.48
2018-03-28T05:07:42.520Z,935.47
2018-03-28T05:08:42.493Z,935.48
2018-03-28T05:09:42.485Z,935.48
2018-03-28T05:10:42.485Z,935.44
2018-03-28T05:11:42.478Z,935.45
2018-03-28T05:12:42.470Z,935.48
2018-03-28T05:13:42.480Z,935.46
2018-03-28T05:14:42.472Z,935.46
2018-03-28T05:15:42.580Z,935.46
2018-03-28T05:16:42.439Z,935.41
2018-03-28T05:17:42.441Z,935.40
2018-03-28T05:18:42.431Z,935.43
2018-03-28T05:19:42.424Z,935.35
2018-03-28T05:20:42.412Z,935.37
2018-03-28T05:21:42.405Z,935.40
2018-03-28T05:22:42.462Z,935.35
2018-03-28T05:23:42.408Z,935.37
2018-03-28T05:24:42.399Z,935.34
2018-03-28T05:25:42.378Z,935.39
2018-03-28T05:26:42.392Z,935.39
2018-03-28T05:27:42.387Z,935.36
2018-03-28T05:28:42.356Z,935.36
2018-03-28T05:29:42.350Z,935.35
2018-03-28T05:30:42.344Z,935.34
2018-03-28T05:31:42.342Z,935.37
2018-03-28T05:32:42.333Z,935.33
2018-03-28T05:33:42.347Z,935.32
2018-03-28T05:34:42.317Z,935.31
2018-03-28T05:35:42.328Z,935.28
2018-03-28T05:36:42.321Z,935.29
2018-03-28T05:37:42.331Z,935.23
2018-03-28T05:38:42.299Z,935.27
2018-03-28T05:39:42.304Z,935.23
2018-03-28T05:40:42.286Z,935.22
2018-03-28T05:41:42.278Z,935.22
2018-03-28T05:42:42.287Z,935.20
2018-03-28T05:43:42.267Z,935.20
2018-03-28T05:44:42.256Z,935.20
2018-03-28T05:45:42.343Z,935.16
2018-03-28T05:46:42.252Z,935.11
2018-03-28T05:47:42.257Z,935.11
2018-03-28T05:48:42.246Z,935.11
2018-03-28T05:49:42.222Z,935.13
2018-03-28T05:50:42.219Z,935.10
2018-03-28T05:51:42.206Z,935.09
2018-03-28T05:52:42.195Z,935.07
2018-03-28T05:53:42.198Z,935.05
2018-03-28T05:54:42.189Z,935.02
2018-03-28T05:55:42.191Z,934.99
2018-03-28T05:56:42.168Z,934.96
2018-03-28T05:57:42.172Z,934.98
2018-03-28T05:58:42.162Z,935.00
2018-03-28T05:59:42.158Z,935.03
2018-03-28T06:00:42.158Z,935.01
2018-03-28T06:01:42.137Z,935.03
2018-03-28T06:02:42.130Z,935.00
2018-03-28T06:03:42.128Z,934.99
2018-03-28T06:04:42.115Z,934.99
2018-03-28T06:05:42.125Z,934.96
2018-03-28T06:06:42.108Z,934.94
2018-03-28T06:07:42.103Z,934.94
2018-03-28T06:08:42.090Z,934.94
2018-03-28T06:09:42.088Z,934.94
2018-03-28T06:10:42.092Z,934.95
2018-03-28T06:11:42.090Z,934.94
2018-03-28T06:12:42.076Z,934.96
2018-03-28T06:13:42.063Z,934.95
2018-03-28T06:14:42.055Z,934.95
2018-03-28T06:15:42.048Z,934.95
2018-03-28T06:16:42.052Z,934.94
2018-03-28T06:17:42.035Z,934.93
2018-03-28T06:18:42.028Z,934.94
2018-03-28T06:19:42.041Z,934.91
2018-03-28T06:20:42.008Z,934.92
2018-03-28T06:21:42.002Z,934.91
2018-03-28T06:22:42.008Z,934.89
2018-03-28T06:23:42.010Z,934.90
2018-03-28T06:24:41.989Z,934.91
2018-03-28T06:25:41.976Z,934.94
2018-03-28T06:26:41.975Z,934.93
2018-03-28T06:27:41.971Z,934.96
2018-03-28T06:28:41.966Z,934.94
2018-03-28T06:29:41.949Z,934.95
2018-03-28T06:30:41.980Z,934.99
2018-03-28T06:31:41.946Z,934.96
2018-03-28T06:32:41.929Z,934.98
2018-03-28T06:33:41.931Z,935.01
2018-03-28T06:34:41.926Z,934.98
2018-03-28T06:35:41.929Z,934.96
2018-03-28T06:36:41.919Z,934.96
2018-03-28T06:37:41.902Z,934.98
2018-03-28T06:38:41.889Z,934.92
2018-03-28T06:39:41.989Z,934.96
2018-03-28T06:40:41.884Z,934.94
2018-03-28T06:41:41.878Z,934.97
2018-03-28T06:42:41.888Z,934.95
2018-03-28T06:43:41.864Z,934.95
2018-03-28T06:44:41.875Z,934.96
2018-03-28T06:45:41.949Z,934.95
2018-03-28T06:46:41.842Z,934.95
2018-03-28T06:47:41.834Z,934.95
2018-03-28T06:48:41.828Z,934.93
2018-03-28T06:49:41.822Z,934.95
2018-03-28T06:50:41.831Z,934.96
2018-03-28T06:51:41.808Z,934.97
2018-03-28T06:52:41.799Z,934.96
2018-03-28T06:53:41.788Z,934.96
2018-03-28T06:54:41.789Z,934.95
2018-03-28T06:55:41.792Z,935.01
2018-03-28T06:56:41.775Z,935.02
2018-03-28T06:57:41.771Z,935.04
2018-03-28T06:58:41.773Z,935.06
2018-03-28T06:59:41.801Z,935.06
2018-03-28T07:00:41.753Z,935.06
2018-03-28T07:01:41.742Z,935.03
2018-03-28T07:02:41.737Z,935.02
2018-03-28T07:03:41.829Z,935.04
2018-03-28T07:04:41.723Z,935.04
2018-03-28T07:05:41.720Z,935.06
2018-03-28T07:06:41.703Z,935.02
2018-03-28T07:07:41.703Z,935.03
2018-03-28T07:08:41.701Z,935.03
2018-03-28T07:09:41.695Z,935.05
2018-03-28T07:10:41.684Z,935.01
2018-03-28T07:11:41.681Z,935.05
2018-03-28T07:12:41.670Z,935.06
2018-03-28T07:13:41.664Z,935.05
2018-03-28T07:14:41.662Z,935.04
2018-03-28T07:15:41.644Z,935.06
2018-03-28T07:16:41.645Z,935.09
2018-03-28T07:17:41.638Z,935.06
2018-03-28T07:18:41.632Z,935.13
2018-03-28T07:19:41.625Z,935.12
2018-03-28T07:20:41.615Z,935.10
2018-03-28T07:21:41.605Z,935.12
2018-03-28T07:22:41.606Z,935.11
2018-03-28T07:23:41.614Z,935.12
2018-03-28T07:24:41.610Z,935.14
2018-03-28T07:25:41.589Z,935.17
2018-03-28T07:26:41.580Z,935.17
2018-03-28T07:27:41.572Z,935.20
2018-03-28T07:28:41.574Z,935.18
2018-03-28T07:29:41.559Z,935.17
2018-03-28T07:30:41.569Z,935.20
2018-03-28T07:31:41.564Z,935.22
2018-03-28T07:32:41.539Z,935.19
2018-03-28T07:33:41.535Z,935.21
2018-03-28T07:34:41.527Z,935.22
2018-03-28T07:35:41.520Z,935.22
2018-03-28T07:36:41.514Z,935.21
2018-03-28T07:37:41.508Z,935.18
2018-03-28T07:38:41.516Z,935.22
2018-03-28T07:39:41.496Z,935.18
2018-03-28T07:40:41.498Z,935.21
2018-03-28T07:41:41.497Z,935.22
2018-03-28T07:42:41.468Z,935.23
2018-03-28T07:43:41.468Z,935.22
2018-03-28T07:44:41.455Z,935.22
2018-03-28T07:45:41.449Z,935.27
2018-03-28T07:46:41.443Z,935.28
2018-03-28T07:47:41.441Z,935.27
2018-03-28T07:48:41.435Z,935.30
2018-03-28T07:49:41.430Z,935.32
2018-03-28T07:50:41.422Z,935.32
2018-03-28T07:51:41.415Z,935.35
2018-03-28T07:52:41.408Z,935.36
2018-03-28T07:53:41.402Z,935.39
2018-03-28T07:54:41.396Z,935.39
2018-03-28T07:55:41.390Z,935.37
2018-03-28T07:56:41.382Z,935.40
2018-03-28T07:57:41.371Z,935.41
2018-03-28T07:58:41.380Z,935.39
2018-03-28T07:59:41.377Z,935.40
2018-03-28T08:00:41.371Z,935.39
2018-03-28T08:01:41.359Z,935.35
2018-03-28T08:02:41.358Z,935.40
2018-03-28T08:03:41.436Z,935.38
2018-03-28T08:04:41.322Z,935.39
2018-03-28T08:05:41.318Z,935.36
2018-03-28T08:06:41.316Z,935.36
2018-03-28T08:07:41.308Z,935.34
2018-03-28T08:08:41.295Z,935.36
2018-03-28T08:09:41.296Z,935.37
2018-03-28T08:10:41.290Z,935.37
2018-03-28T08:11:41.283Z,935.35
2018-03-28T08:12:41.271Z,935.37
2018-03-28T08:13:41.281Z,935.36
2018-03-28T08:14:41.263Z,935.37
2018-03-28T08:15:41.274Z,935.41
2018-03-28T08:16:41.250Z,935.40
2018-03-28T08:17:41.244Z,935.42
2018-03-28T08:18:41.231Z,935.43
2018-03-28T08:19:41.230Z,935.45
2018-03-28T08:20:41.225Z,935.44
2018-03-28T08:21:41.211Z,935.45
2018-03-28T08:22:41.204Z,935.49
2018-03-28T08:23:41.215Z,935.48
2018-03-28T08:24:41.191Z,935.53
2018-03-28T08:25:41.243Z,935.53
2018-03-28T08:26:41.196Z,935.55
2018-03-28T08:27:41.178Z,935.54
2018-03-28T08:28:41.166Z,935.56
2018-03-28T08:29:41.178Z,935.55
2018-03-28T08:30:41.176Z,935.59
2018-03-28T08:31:41.146Z,935.62
2018-03-28T08:32:41.145Z,935.66
2018-03-28T08:33:41.139Z,935.66
2018-03-28T08:34:41.128Z,935.66
2018-03-28T08:35:41.123Z,935.65
2018-03-28T08:36:41.119Z,935.65
2018-03-28T08:37:41.118Z,935.65
2018-03-28T08:38:41.118Z,935.64
2018-03-28T08:39:41.116Z,935.67
2018-03-28T08:40:41.111Z,935.69
2018-03-28T08:41:41.080Z,935.65
2018-03-28T08:42:41.094Z,935.64
2018-03-28T08:43:41.068Z,935.69
2018-03-28T08:44:41.061Z,935.69
2018-03-28T08:45:41.079Z,935.69
2018-03-28T08:46:41.074Z,935.72
2018-03-28T08:47:41.064Z,935.68
2018-03-28T08:48:41.053Z,935.67
2018-03-28T08:49:41.051Z,935.64
2018-03-28T08:50:41.046Z,935.64
2018-03-28T08:51:41.020Z,935.67
2018-03-28T08:52:41.032Z,935.67
2018-03-28T08:53:41.008Z,935.68
2018-03-28T08:54:41.020Z,935.66
2018-03-28T08:55:41.013Z,935.67
2018-03-28T08:56:40.989Z,935.69
2018-03-28T08:57:41.001Z,935.66
2018-03-28T08:58:40.970Z,935.63
2018-03-28T08:59:40.987Z,935.65
2018-03-28T09:00:40.958Z,935.69
2018-03-28T09:01:40.970Z,935.69
2018-03-28T09:02:40.968Z,935.68
2018-03-28T09:03:40.937Z,935.64
2018-03-28T09:04:40.937Z,935.69
2018-03-28T09:05:40.949Z,935.68
2018-03-28T09:06:40.938Z,935.65
2018-03-28T09:07:40.912Z,935.67
2018-03-28T09:08:40.912Z,935.65
2018-03-28T09:09:40.918Z,935.70
2018-03-28T09:10:40.900Z,935.69
2018-03-28T09:11:40.923Z,935.73
2018-03-28T09:12:40.880Z,935.72
2018-03-28T09:13:40.880Z,935.73
2018-03-28T09:14:40.887Z,935.70
2018-03-28T09:15:40.862Z,935.73
2018-03-28T09:16:40.860Z,935.71
2018-03-28T09:17:40.855Z,935.73
2018-03-28T09:18:40.848Z,935.70
2018-03-28T09:19:40.835Z,935.71
2018-03-28T09:20:40.834Z,935.72
2018-03-28T09:21:40.829Z,935.72
2018-03-28T09:22:40.823Z,935.69
2018-03-28T09:23:40.833Z,935.71
2018-03-28T09:24:40.810Z,935.72
2018-03-28T09:25:40.803Z,935.74
2018-03-28T09:26:40.814Z,935.73
2018-03-28T09:27:40.790Z,935.77
2018-03-28T09:28:40.778Z,935.79
2018-03-28T09:29:40.772Z,935.79
2018-03-28T09:30:40.791Z,935.79
2018-03-28T09:31:40.777Z,935.85
2018-03-28T09:32:40.759Z,935.82
2018-03-28T09:33:40.747Z,935.83
2018-03-28T09:34:40.740Z,935.83
2018-03-28T09:35:40.740Z,935.86
2018-03-28T09:36:40.729Z,935.87
2018-03-28T09:37:40.733Z,935.89
2018-03-28T09:38:40.721Z,935.85
2018-03-28T09:39:40.715Z,935.86
2018-03-28T09:40:40.708Z,935.90
2018-03-28T09:41:40.697Z,935.93
2018-03-28T09:42:40.699Z,935.95
2018-03-28T09:43:40.684Z,935.97
2018-03-28T09:44:40.685Z,935.97
2018-03-28T09:45:40.677Z,935.96
2018-03-28T09:46:40.671Z,935.99
2018-03-28T09:47:40.664Z,936.03
2018-03-28T09:48:40.662Z,935.99
2018-03-28T09:49:40.669Z,936.04
2018-03-28T09:50:40.664Z,936.02
2018-03-28T09:51:40.633Z,936.04
2018-03-28T09:52:40.645Z,936.03
2018-03-28T09:53:40.628Z,936.09
2018-03-28T09:54:40.614Z,936.05
2018-03-28T09:55:40.618Z,936.09
2018-03-28T09:56:40.607Z,936.11
2018-03-28T09:57:40.706Z,936.06
2018-03-28T09:58:40.608Z,936.06
2018-03-28T09:59:40.583Z,936.09
2018-03-28T10:00:40.575Z,936.08
2018-03-28T10:01:40.571Z,936.07
2018-03-28T10:02:40.575Z,936.07
2018-03-28T10:03:40.563Z,936.05
2018-03-28T10:04:40.557Z,936.02
2018-03-28T10:05:40.551Z,936.05
2018-03-28T10:06:40.550Z,936.05
2018-03-28T10:07:40.551Z,936.02
2018-03-28T10:08:40.559Z,936.06
2018-03-28T10:09:40.544Z,936.06
2018-03-28T10:10:40.520Z,936.06
2018-03-28T10:11:40.506Z,936.06
2018-03-28T10:12:40.507Z,936.10
2018-03-28T10:13:40.502Z,936.09
2018-03-28T10:14:40.491Z,936.08
2018-03-28T10:15:40.489Z,936.09
2018-03-28T10:16:40.495Z,936.12
2018-03-28T10:17:40.486Z,936.11
2018-03-28T10:18:40.466Z,936.11
2018-03-28T10:19:40.482Z,936.14
2018-03-28T10:20:40.460Z,936.14
2018-03-28T10:21:40.462Z,936.18
2018-03-28T10:22:40.447Z,936.13
2018-03-28T10:23:40.455Z,936.14
2018-03-28T10:24:40.444Z,936.15
2018-03-28T10:25:40.428Z,936.13
2018-03-28T10:26:40.422Z,936.15
2018-03-28T10:27:40.516Z,936.16
2018-03-28T10:28:40.410Z,936.15
2018-03-28T10:29:40.399Z,936.15
2018-03-28T10:30:40.403Z,936.17
2018-03-28T10:31:40.395Z,936.17
2018-03-28T10:32:40.389Z,936.18
2018-03-28T10:33:40.381Z,936.21
2018-03-28T10:34:40.375Z,936.23
2018-03-28T10:35:40.373Z,936.25
2018-03-28T10:36:40.363Z,936.22
2018-03-28T10:37:40.356Z,936.24
2018-03-28T10:38:40.366Z,936.29
2018-03-28T10:39:40.364Z,936.28
2018-03-28T10:40:40.340Z,936.28
2018-03-28T10:41:40.357Z,936.30
2018-03-28T10:42:40.323Z,936.27
2018-03-28T10:43:40.324Z,936.29
2018-03-28T10:44:40.315Z,936.32
2018-03-28T10:45:40.310Z,936.33
2018-03-28T10:46:40.306Z,936.34
2018-03-28T10:47:40.299Z,936.33
2018-03-28T10:48:40.307Z,936.37
2018-03-28T10:49:40.302Z,936.35
2018-03-28T10:50:40.280Z,936.37
2018-03-28T10:51:40.291Z,936.35
2018-03-28T10:52:40.270Z,936.38
2018-03-28T10:53:40.264Z,936.36
2018-03-28T10:54:40.259Z,936.40
2018-03-28T10:55:40.253Z,936.40
2018-03-28T10:56:40.250Z,936.40
2018-03-28T10:57:40.261Z,936.41
2018-03-28T10:58:40.252Z,936.40
2018-03-28T10:59:40.230Z,936.39
2018-03-28T11:00:40.225Z,936.38
2018-03-28T11:01:40.222Z,936.41
2018-03-28T11:02:40.214Z,936.41
2018-03-28T11:03:40.229Z,936.41
2018-03-28T11:04:40.218Z,936.41
2018-03-28T11:05:40.197Z,936.44
2018-03-28T11:06:40.193Z,936.43
2018-03-28T11:07:40.232Z,936.44
2018-03-28T11:08:40.174Z,936.45
2018-03-28T11:09:40.186Z,936.48
2018-03-28T11:10:40.180Z,936.48
2018-03-28T11:11:40.183Z,936.47
2018-03-28T11:12:40.159Z,936.51
2018-03-28T11:13:40.164Z,936.50
2018-03-28T11:14:40.143Z,936.54
2018-03-28T11:15:40.142Z,936.51
2018-03-28T11:16:40.137Z,936.49
2018-03-28T11:17:40.132Z,936.47
2018-03-28T11:18:40.127Z,936.47
2018-03-28T11:19:40.120Z,936.48
2018-03-28T11:20:40.116Z,936.49
2018-03-28T11:21:40.111Z,936.51
2018-03-28T11:22:40.121Z,936.55
2018-03-28T11:23:40.119Z,936.54
2018-03-28T11:24:40.098Z,936.60
2018-03-28T11:25:40.094Z,936.55
2018-03-28T11:26:40.100Z,936.61
2018-03-28T11:27:40.195Z,936.59
2018-03-28T11:28:40.084Z,936.58
2018-03-28T11:29:40.090Z,936.58
2018-03-28T11:30:40.081Z,936.57
2018-03-28T11:31:40.075Z,936.58
2018-03-28T11:32:40.102Z,936.60
2018-03-28T11:33:40.051Z,936.60
2018-03-28T11:34:40.060Z,936.61
2018-03-28T11:35:40.038Z,936.59
2018-03-28T11:36:40.047Z,936.58
2018-03-28T11:37:40.050Z,936.55
2018-03-28T11:38:40.015Z,936.52
2018-03-28T11:39:40.019Z,936.57
2018-03-28T11:40:40.011Z,936.56
2018-03-28T11:41:39.999Z,936.57
2018-03-28T11:42:40.029Z,936.58
2018-03-28T11:43:40.001Z,936.57
2018-03-28T11:44:39.994Z,936.57
2018-03-28T11:45:40.007Z,936.61
2018-03-28T11:46:39.981Z,936.57
2018-03-28T11:47:39.993Z,936.61
2018-03-28T11:48:39.988Z,936.61
2018-03-28T11:49:39.969Z,936.61
2018-03-28T11:50:39.969Z,936.59
2018-03-28T11:51:39.957Z,936.63
2018-03-28T11:52:39.950Z,936.62
2018-03-28T11:53:39.960Z,936.62
2018-03-28T11:54:39.939Z,936.64
2018-03-28T11:55:39.933Z,936.67
2018-03-28T11:56:39.945Z,936.69
2018-03-28T11:57:39.927Z,936.73
2018-03-28T11:58:39.938Z,936.73
2018-03-28T11:59:39.913Z,936.74
2018-03-28T12:00:39.908Z,936.76
2018-03-28T12:01:39.923Z,936.78
2018-03-28T12:02:39.900Z,936.77
2018-03-28T12:03:39.902Z,936.82
2018-03-28T12:04:39.902Z,936.79
2018-03-28T12:05:39.899Z,936.79
2018-03-28T12:06:39.879Z,936.80
2018-03-28T12:07:39.893Z,936.82
2018-03-28T12:08:39.863Z,936.81
2018-03-28T12:09:39.875Z,936.81
2018-03-28T12:10:39.865Z,936.78
2018-03-28T12:11:39.866Z,936.80
2018-03-28T12:12:39.854Z,936.80
2018-03-28T12:13:39.849Z,936.81
2018-03-28T12:14:39.845Z,936.79
2018-03-28T12:15:39.852Z,936.77
2018-03-28T12:16:39.842Z,936.80
2018-03-28T12:17:39.831Z,936.74
2018-03-28T12:18:39.836Z,936.78
2018-03-28T12:19:39.823Z,936.77
2018-03-28T12:20:39.834Z,936.80
2018-03-28T12:21:39.814Z,936.75
2018-03-28T12:22:39.827Z,936.77
2018-03-28T12:23:39.827Z,936.74
2018-03-28T12:24:39.799Z,936.77
2018-03-28T12:25:39.798Z,936.74
2018-03-28T12:26:39.995Z,936.74
2018-03-28T12:27:39.789Z,936.72
2018-03-28T12:28:39.786Z,936.74